createdAt,value
2022-11-08T00:00:27.573Z,93.56
2022-11-08T00:02:59.593Z,93.48
2022-11-08T00:05:30.527Z,93.71
2022-11-08T00:08:04.043Z,93.55
2022-11-08T00:10:35.167Z,93.32
2022-11-08T00:13:07.175Z,93.23
2022-11-08T00:15:38.073Z,93.23
2022-11-08T00:18:09.075Z,93.30
2022-11-08T00:20:39.322Z,93.87
2022-11-08T00:23:09.854Z,93.80
2022-11-08T00:25:40.572Z,93.78
2022-11-08T00:28:11.058Z,93.78
2022-11-08T00:30:41.665Z,93.47
2022-11-08T00:33:11.904Z,93.70
2022-11-08T00:35:42.199Z,93.72
2022-11-08T00:38:12.730Z,93.72
2022-11-08T00:40:42.996Z,93.80
2022-11-08T00:43:13.462Z,94.63
2022-11-08T00:45:43.981Z,94.82
2022-11-08T00:48:14.887Z,94.82
2022-11-08T00:50:46.344Z,94.53
2022-11-08T00:53:16.753Z,94.59
2022-11-08T00:55:47.275Z,94.59
2022-11-08T00:58:17.847Z,94.63
2022-11-08T01:00:48.699Z,94.36
2022-11-08T01:03:19.069Z,95.09
2022-11-08T01:05:53.518Z,95.09
2022-11-08T01:08:24.462Z,95.50
2022-11-08T01:10:55.287Z,95.23
2022-11-08T01:13:25.717Z,95.23
2022-11-08T01:15:56.985Z,95.26
2022-11-08T01:18:27.927Z,95.44
2022-11-08T01:20:58.048Z,95.44
2022-11-08T01:23:28.380Z,94.77
2022-11-08T01:26:07.947Z,94.95
2022-11-08T01:28:38.784Z,94.95
2022-11-08T01:31:12.779Z,94.50
2022-11-08T01:33:47.129Z,94.50
2022-11-08T01:36:18.037Z,93.21
2022-11-08T01:38:49.127Z,93.69
2022-11-08T01:41:22.299Z,93.78
2022-11-08T01:43:59.201Z,94.16
2022-11-08T01:46:35.582Z,94.51
2022-11-08T01:49:25.338Z,93.44
2022-11-08T01:52:13.138Z,93.19
2022-11-08T01:55:04.766Z,93.40
2022-11-08T01:57:44.548Z,93.85
2022-11-08T02:00:15.857Z,93.91
2022-11-08T02:02:55.595Z,94.05
2022-11-08T02:05:28.983Z,94.05
2022-11-08T02:08:28.243Z,94.22
2022-11-08T02:10:58.976Z,94.22
2022-11-08T02:13:32.222Z,94.34
2022-11-08T02:16:19.183Z,94.69
2022-11-08T02:18:50.410Z,94.19
2022-11-08T02:21:35.268Z,94.40
2022-11-08T02:24:10.891Z,94.40
2022-11-08T02:26:44.362Z,95.07
2022-11-08T02:29:27.265Z,93.87
2022-11-08T02:31:59.376Z,93.16
2022-11-08T02:34:44.285Z,93.58
2022-11-08T02:37:18.129Z,93.58
2022-11-08T02:39:48.410Z,93.41
2022-11-08T02:42:21.036Z,93.41
2022-11-08T02:44:51.207Z,92.47
2022-11-08T02:47:21.399Z,92.26
2022-11-08T02:49:52.025Z,92.78
2022-11-08T02:52:22.833Z,93.10
2022-11-08T02:54:53.407Z,93.10
2022-11-08T02:57:24.156Z,92.67
2022-11-08T02:59:54.457Z,93.05
2022-11-08T03:02:24.903Z,93.05
2022-11-08T03:04:55.374Z,94.32
2022-11-08T03:07:25.828Z,94.32
2022-11-08T03:09:56.389Z,94.58
2022-11-08T03:12:27.170Z,94.80
2022-11-08T03:14:57.412Z,95.57
2022-11-08T03:17:28.426Z,95.64
2022-11-08T03:19:59.038Z,95.70
2022-11-08T03:22:30.074Z,95.12
2022-11-08T03:25:00.615Z,95.12
2022-11-08T03:27:30.795Z,93.94
2022-11-08T03:30:01.171Z,94.02
2022-11-08T03:32:31.499Z,94.02
2022-11-08T03:35:01.733Z,93.73
2022-11-08T03:37:32.211Z,93.56
2022-11-08T03:40:02.767Z,93.15
2022-11-08T03:42:33.235Z,93.15
2022-11-08T03:45:03.627Z,92.90
2022-11-08T03:47:39.838Z,94.10
2022-11-08T03:50:11.380Z,94.10
2022-11-08T03:52:50.584Z,92.71
2022-11-08T03:55:23.379Z,93.52
2022-11-08T03:57:54.560Z,92.92
2022-11-08T04:00:27.895Z,92.92
2022-11-08T04:03:03.644Z,93.79
2022-11-08T04:05:33.912Z,93.79
2022-11-08T04:08:05.732Z,93.88
2022-11-08T04:10:36.691Z,93.33
2022-11-08T04:13:09.766Z,93.94
2022-11-08T04:15:40.449Z,92.76
2022-11-08T04:18:11.249Z,92.88
2022-11-08T04:20:44.942Z,93.19
2022-11-08T04:23:16.623Z,93.60
2022-11-08T04:25:49.969Z,93.47
2022-11-08T04:28:20.661Z,93.79
2022-11-08T04:30:56.812Z,93.79
2022-11-08T04:33:27.178Z,93.48
2022-11-08T04:36:02.886Z,93.11
2022-11-08T04:38:34.190Z,91.94
2022-11-08T04:41:12.724Z,91.94
2022-11-08T04:43:42.994Z,93.07
2022-11-08T04:46:16.719Z,93.07
2022-11-08T04:48:47.826Z,93.37
2022-11-08T04:51:21.269Z,93.37
2022-11-08T04:53:51.481Z,93.68
2022-11-08T04:56:22.502Z,94.00
2022-11-08T04:58:55.558Z,94.07
2022-11-08T05:01:29.604Z,93.35
2022-11-08T05:04:00.375Z,93.06
2022-11-08T05:06:41.191Z,92.85
2022-11-08T05:09:13.466Z,92.16
2022-11-08T05:11:43.821Z,92.16
2022-11-08T05:14:16.373Z,91.88
2022-11-08T05:16:47.365Z,91.95
2022-11-08T05:19:17.690Z,91.66
2022-11-08T05:21:48.502Z,90.72
2022-11-08T05:24:19.091Z,90.72
2022-11-08T05:26:52.010Z,91.12
2022-11-08T05:29:22.236Z,91.29
2022-11-08T05:31:53.480Z,91.54
2022-11-08T05:34:25.213Z,91.76
2022-11-08T05:36:56.624Z,91.17
2022-11-08T05:39:31.891Z,91.17
2022-11-08T05:41:59.495Z,91.14
2022-11-08T05:44:29.947Z,90.32
2022-11-08T05:47:00.772Z,90.32
2022-11-08T05:49:31.271Z,90.21
2022-11-08T05:52:04.998Z,90.21
2022-11-08T05:54:36.469Z,90.10
2022-11-08T05:57:06.763Z,90.10
2022-11-08T05:59:37.318Z,90.66
2022-11-08T06:02:08.006Z,90.42
2022-11-08T06:04:39.643Z,89.99
2022-11-08T06:07:10.010Z,89.99
2022-11-08T06:09:40.479Z,90.13
2022-11-08T06:12:11.031Z,90.01
2022-11-08T06:14:41.658Z,90.01
2022-11-08T06:17:11.944Z,89.12
2022-11-08T06:19:42.892Z,89.12
2022-11-08T06:22:13.191Z,89.05
2022-11-08T06:24:44.348Z,88.40
2022-11-08T06:27:15.277Z,88.60
2022-11-08T06:29:46.254Z,88.92
2022-11-08T06:32:18.195Z,88.92
2022-11-08T06:34:54.656Z,87.28
2022-11-08T06:37:21.182Z,87.99
2022-11-08T06:39:52.224Z,87.55
2022-11-08T06:45:44.264Z,87.55
2022-11-08T06:48:15.179Z,87.20
2022-11-08T06:50:51.195Z,87.03
2022-11-08T06:56:17.388Z,87.30
2022-11-08T06:58:51.283Z,87.79
2022-11-08T07:01:30.183Z,87.79
2022-11-08T07:04:04.741Z,87.41
2022-11-08T07:06:35.169Z,87.41
2022-11-08T07:12:14.416Z,86.98
2022-11-08T07:12:39.420Z,86.98
2022-11-08T07:14:45.215Z,86.12
2022-11-08T07:17:38.683Z,87.25
2022-11-08T07:20:29.846Z,87.63
2022-11-08T07:22:58.610Z,86.02
2022-11-08T07:25:37.580Z,85.29
2022-11-08T07:28:34.234Z,85.29
2022-11-08T07:31:09.230Z,84.69
2022-11-08T07:33:39.854Z,85.21
2022-11-08T07:36:11.335Z,84.18
2022-11-08T07:38:41.553Z,83.74
2022-11-08T07:41:13.381Z,84.48
2022-11-08T07:43:43.756Z,84.48
2022-11-08T07:46:18.371Z,82.53
2022-11-08T07:48:58.416Z,83.44
2022-11-08T07:51:24.019Z,83.62
2022-11-08T07:54:02.665Z,83.71
2022-11-08T07:56:37.289Z,83.30
2022-11-08T07:59:10.676Z,83.07
2022-11-08T08:04:38.849Z,84.06
2022-11-08T08:07:09.546Z,84.33
2022-11-08T08:12:52.944Z,84.17
2022-11-08T08:18:41.672Z,84.24
2022-11-08T08:21:12.278Z,84.09
2022-11-08T08:23:42.644Z,84.09
2022-11-08T08:26:13.947Z,81.59
2022-11-08T08:28:44.361Z,82.43
2022-11-08T08:31:15.480Z,82.14
2022-11-08T08:33:45.639Z,82.14
2022-11-08T08:36:16.317Z,82.07
2022-11-08T08:38:46.593Z,82.68
2022-11-08T08:41:17.546Z,82.84
2022-11-08T08:43:47.782Z,81.18
2022-11-08T08:46:21.462Z,79.48
2022-11-08T08:48:51.991Z,76.93
2022-11-08T08:51:36.657Z,75.95
2022-11-08T08:54:06.486Z,75.95
2022-11-08T08:56:37.065Z,76.75
2022-11-08T09:01:41.035Z,78.32
2022-11-08T09:04:11.365Z,79.62
2022-11-08T09:06:42.131Z,80.77
2022-11-08T09:09:12.410Z,80.44
2022-11-08T09:11:43.282Z,77.09
2022-11-08T09:14:14.066Z,76.50
2022-11-08T09:16:44.800Z,77.79
2022-11-08T09:19:24.148Z,76.94
2022-11-08T09:21:56.577Z,76.76
2022-11-08T09:24:26.461Z,76.76
2022-11-08T09:26:56.936Z,76.17
2022-11-08T09:29:27.266Z,76.17
2022-11-08T09:31:57.754Z,74.99
2022-11-08T09:34:28.744Z,74.99
2022-11-08T09:37:00.390Z,74.58
2022-11-08T09:39:33.193Z,72.74
2022-11-08T09:42:27.310Z,73.99
2022-11-08T09:45:24.731Z,75.21
2022-11-08T09:48:05.359Z,75.21
2022-11-08T09:53:22.104Z,75.14
2022-11-08T09:56:18.958Z,74.75
2022-11-08T09:59:14.579Z,72.65
2022-11-08T10:01:45.764Z,73.31
2022-11-08T10:04:37.544Z,68.77
2022-11-08T10:07:19.452Z,70.87
2022-11-08T10:10:08.771Z,71.48
2022-11-08T10:13:01.473Z,70.80
2022-11-08T10:15:58.292Z,71.02
2022-11-08T10:18:52.666Z,71.98
2022-11-08T10:21:44.391Z,71.98
2022-11-08T10:24:35.817Z,72.07
2022-11-08T10:27:17.645Z,68.81
2022-11-08T10:29:51.500Z,72.32
2022-11-08T10:32:25.358Z,73.21
2022-11-08T10:35:11.047Z,73.73
2022-11-08T10:37:44.272Z,72.54
2022-11-08T10:40:29.652Z,71.58
2022-11-08T10:43:21.904Z,71.96
2022-11-08T10:45:52.358Z,71.23
2022-11-08T10:48:26.250Z,71.23
2022-11-08T10:51:00.722Z,69.73
2022-11-08T10:53:35.854Z,70.02
2022-11-08T10:56:12.294Z,68.68
2022-11-08T10:58:56.107Z,68.68
2022-11-08T11:01:44.785Z,66.75
2022-11-08T11:07:32.809Z,66.20
2022-11-08T11:10:44.066Z,67.33
2022-11-08T11:13:20.495Z,67.33
2022-11-08T11:15:53.868Z,65.57
2022-11-08T11:18:33.080Z,63.99
2022-11-08T11:21:23.058Z,63.99
2022-11-08T13:31:06.702Z,76.53
2022-11-08T13:33:41.030Z,76.53
2022-11-08T13:36:24.652Z,76.13
2022-11-08T13:39:12.559Z,76.14
2022-11-08T13:42:14.117Z,76.14
2022-11-08T13:45:29.860Z,75.37
2022-11-08T13:48:05.640Z,75.37
2022-11-08T13:50:59.490Z,77.57
2022-11-08T13:53:48.740Z,77.38
2022-11-08T13:56:24.911Z,77.67
2022-11-08T13:58:55.369Z,77.70
2022-11-08T14:01:37.608Z,78.87
2022-11-08T14:07:11.024Z,79.48
2022-11-08T14:09:53.057Z,79.32
2022-11-08T14:13:04.353Z,79.65
2022-11-08T14:18:48.956Z,79.72
2022-11-08T14:21:20.431Z,79.72
2022-11-08T14:23:51.914Z,80.99
2022-11-08T14:26:24.501Z,81.67
2022-11-08T14:28:56.523Z,81.67
2022-11-08T14:31:33.608Z,81.88
2022-11-08T14:34:05.508Z,82.74
2022-11-08T14:36:37.557Z,83.16
2022-11-08T14:39:28.614Z,83.70
2022-11-08T14:42:02.045Z,83.70
2022-11-08T14:44:32.660Z,82.75
2022-11-08T14:47:04.410Z,82.50
2022-11-08T14:49:36.798Z,82.50
2022-11-08T14:52:22.105Z,82.52
2022-11-08T14:55:01.432Z,83.35
2022-11-08T14:57:38.110Z,84.35
2022-11-08T15:00:11.613Z,84.35
2022-11-08T15:02:45.170Z,83.93
2022-11-08T15:05:39.009Z,83.93
2022-11-08T15:08:12.397Z,83.74
2022-11-08T15:11:02.484Z,83.74
2022-11-08T15:13:40.289Z,83.82
2022-11-08T15:16:20.272Z,84.86
2022-11-08T15:19:11.687Z,84.86
2022-11-08T15:22:07.499Z,84.73
2022-11-08T15:24:43.341Z,84.89
2022-11-08T15:27:20.999Z,84.74
2022-11-08T15:30:24.483Z,84.74
2022-11-08T15:35:57.137Z,87.22
2022-11-08T15:38:55.415Z,87.04
2022-11-08T15:41:33.321Z,86.36
2022-11-08T15:44:26.568Z,86.40
2022-11-08T15:46:59.167Z,86.40
2022-11-08T15:49:38.475Z,86.45
2022-11-08T15:52:19.203Z,88.39
2022-11-08T15:54:55.176Z,88.02
2022-11-08T15:57:32.904Z,87.63
2022-11-08T16:00:05.614Z,86.76
2022-11-08T16:02:55.932Z,86.76
2022-11-08T16:05:34.720Z,86.55
2022-11-08T16:08:05.573Z,86.52
2022-11-08T16:13:34.855Z,87.82
2022-11-08T16:16:10.964Z,87.82
2022-11-08T16:18:43.911Z,88.37
2022-11-08T16:21:16.462Z,88.70
2022-11-08T16:23:49.581Z,89.21
2022-11-08T16:26:24.493Z,89.95
2022-11-08T16:29:03.812Z,89.35
2022-11-08T16:31:31.438Z,89.87
2022-11-08T16:34:04.472Z,90.29
2022-11-08T16:36:35.615Z,89.32
2022-11-08T16:42:02.847Z,90.80
2022-11-08T16:44:37.673Z,90.60
2022-11-08T17:13:47.007Z,92.11
2022-11-08T17:23:08.657Z,91.44
2022-11-08T17:31:56.823Z,91.76
2022-11-08T17:34:47.274Z,91.56
2022-11-08T17:37:24.200Z,90.64
2022-11-08T17:39:57.744Z,90.93
2022-11-08T17:42:34.135Z,90.93
2022-11-08T17:45:10.480Z,91.76
2022-11-08T17:50:32.332Z,91.90
2022-11-08T17:53:04.852Z,91.90
2022-11-08T17:55:40.274Z,91.53
2022-11-08T17:58:34.415Z,91.91
2022-11-08T18:06:29.041Z,93.32
2022-11-08T18:09:08.027Z,93.32
2022-11-08T18:11:39.915Z,92.15
2022-11-08T18:14:54.678Z,92.15
2022-11-08T18:17:52.840Z,93.90
2022-11-08T18:20:20.642Z,94.67
2022-11-08T18:22:56.079Z,94.93
2022-11-08T18:25:32.783Z,95.79
2022-11-08T18:28:22.557Z,95.45
2022-11-08T18:30:58.364Z,95.52
2022-11-08T18:33:41.517Z,95.52
2022-11-08T18:36:14.918Z,96.36
2022-11-08T18:39:03.986Z,96.36
2022-11-08T18:41:31.750Z,96.59
2022-11-08T18:50:31.502Z,94.75
2022-11-08T18:53:04.333Z,94.75
2022-11-08T18:58:59.342Z,94.79
2022-11-08T19:01:32.650Z,95.24
2022-11-08T19:04:06.450Z,95.47
2022-11-08T19:06:41.591Z,95.15
2022-11-08T19:09:29.099Z,96.32
2022-11-08T19:12:06.255Z,96.32
2022-11-08T19:14:40.560Z,95.60
2022-11-08T19:17:16.323Z,95.76
2022-11-08T19:22:51.397Z,95.49
2022-11-08T19:25:24.447Z,96.06
2022-11-08T19:27:58.766Z,96.06
2022-11-08T19:30:46.765Z,96.32
2022-11-08T19:33:23.736Z,95.44
2022-11-08T19:36:15.416Z,95.42
2022-11-08T19:38:48.702Z,95.68
2022-11-08T19:41:28.573Z,95.75
2022-11-08T19:47:05.618Z,96.28
2022-11-08T19:52:34.119Z,97.85
2022-11-08T19:58:33.810Z,97.41
2022-11-08T20:04:51.916Z,96.83
2022-11-08T20:10:23.592Z,96.12
2022-11-08T20:19:21.153Z,96.68
2022-11-08T20:22:03.188Z,97.57
2022-11-08T20:24:33.688Z,97.57
2022-11-08T20:27:06.814Z,98.15
2022-11-08T20:29:41.684Z,98.08
2022-11-08T20:32:12.811Z,98.20
2022-11-08T20:37:26.567Z,98.45
2022-11-08T20:39:59.481Z,97.80
2022-11-08T20:42:30.463Z,97.77
2022-11-08T20:45:00.819Z,96.31
2022-11-08T20:47:33.342Z,96.31
2022-11-08T20:50:06.999Z,95.79
2022-11-08T20:52:37.480Z,96.22
2022-11-08T20:55:07.933Z,96.98
2022-11-08T20:57:38.786Z,97.83
2022-11-08T21:00:13.806Z,98.45
2022-11-08T21:02:45.097Z,98.45
2022-11-08T21:05:15.908Z,97.84
2022-11-08T21:08:22.302Z,97.93
2022-11-08T21:10:41.448Z,98.07
2022-11-08T21:12:51.487Z,98.03
2022-11-08T21:15:32.772Z,98.07
2022-11-08T21:18:04.822Z,97.45
2022-11-08T21:20:36.421Z,97.45
2022-11-08T21:23:07.944Z,97.23
2022-11-08T21:25:40.642Z,97.52
2022-11-08T21:28:12.491Z,97.82
2022-11-08T21:30:45.098Z,97.71
2022-11-08T21:33:15.553Z,97.71
2022-11-08T21:35:51.256Z,97.75
2022-11-08T21:38:23.342Z,96.20
2022-11-08T21:40:54.773Z,96.20
2022-11-08T21:43:25.539Z,96.87
2022-11-08T21:45:56.119Z,95.97
2022-11-08T21:48:27.068Z,96.63
2022-11-08T21:51:11.124Z,97.61
2022-11-08T21:53:53.769Z,98.46
2022-11-08T21:56:15.495Z,98.46
2022-11-08T21:58:47.501Z,97.83
2022-11-08T22:01:18.032Z,97.78
2022-11-08T22:03:49.097Z,98.55
2022-11-08T22:06:20.167Z,98.55
2022-11-08T22:08:51.215Z,98.16
2022-11-08T22:11:21.826Z,97.89
2022-11-08T22:13:54.092Z,97.72
2022-11-08T22:16:24.516Z,96.87
2022-11-08T22:19:10.685Z,96.87
2022-11-08T22:21:28.274Z,96.99
2022-11-08T22:23:59.429Z,98.17
2022-11-08T22:26:30.092Z,98.35
2022-11-08T22:29:01.052Z,98.35
2022-11-08T22:31:39.096Z,97.73
2022-11-08T22:34:10.720Z,97.73
2022-11-08T22:36:45.606Z,98.63
2022-11-08T22:39:33.011Z,97.33
2022-11-08T22:42:07.225Z,97.64
2022-11-08T22:44:39.542Z,98.59
2022-11-08T22:47:10.020Z,98.59
2022-11-08T22:49:44.870Z,98.75
2022-11-08T22:52:13.492Z,99.25
2022-11-08T22:54:45.162Z,99.48
2022-11-08T22:57:16.083Z,99.48
2022-11-08T22:59:46.658Z,99.43
2022-11-08T23:02:17.118Z,99.43
2022-11-08T23:04:50.097Z,99.35
2022-11-08T23:07:20.207Z,98.83
2022-11-08T23:09:51.215Z,98.83
2022-11-08T23:12:22.764Z,99.13
2022-11-08T23:14:56.237Z,99.13
2022-11-08T23:17:27.880Z,98.16
2022-11-08T23:19:58.488Z,97.67
2022-11-08T23:22:29.166Z,98.14
2022-11-08T23:25:00.508Z,98.14
2022-11-08T23:27:31.542Z,98.03
2022-11-08T23:30:04.691Z,98.10
2022-11-08T23:32:36.803Z,98.40
2022-11-08T23:35:07.433Z,98.13
2022-11-08T23:37:40.320Z,98.25
2022-11-08T23:40:13.072Z,98.27
2022-11-08T23:42:43.332Z,98.27
2022-11-08T23:45:13.936Z,96.28
2022-11-08T23:47:45.565Z,96.63
2022-11-08T23:50:16.757Z,95.47
2022-11-08T23:52:47.808Z,95.37
2022-11-08T23:55:18.165Z,95.95
2022-11-08T23:57:48.461Z,97.23
